sensor_id;sensor_type;location;lat;lon;timestamp;pressure;altitude;pressure_sealevel;temperature;humidity
21781;BME280;52576;53.614;9.894;2024-01-27T00:00:09;102533.63;;;4.96;87.43
21781;BME280;52576;53.614;9.894;2024-01-27T00:02:13;102531.91;;;4.95;87.26
21781;BME280;52576;53.614;9.894;2024-01-27T00:04:15;102539.69;;;4.97;87.35
21781;BME280;52576;53.614;9.894;2024-01-27T00:06:18;102540.56;;;4.97;87.05
21781;BME280;52576;53.614;9.894;2024-01-27T00:08:21;102531.00;;;4.98;87.12
21781;BME280;52576;53.614;9.894;2024-01-27T00:10:25;102540.53;;;4.99;87.16
21781;BME280;52576;53.614;9.894;2024-01-27T00:12:28;102543.97;;;4.99;87.10
21781;BME280;52576;53.614;9.894;2024-01-27T00:14:31;102538.78;;;4.99;86.82
21781;BME280;52576;53.614;9.894;2024-01-27T00:16:34;102540.50;;;5.00;86.91
21781;BME280;52576;53.614;9.894;2024-01-27T00:18:38;102537.03;;;5.01;86.79
21781;BME280;52576;53.614;9.894;2024-01-27T00:20:43;102556.09;;;5.00;86.77
21781;BME280;52576;53.614;9.894;2024-01-27T00:22:47;102532.72;;;5.00;86.81
21781;BME280;52576;53.614;9.894;2024-01-27T00:24:50;102526.63;;;5.01;86.69
21781;BME280;52576;53.614;9.894;2024-01-27T00:26:54;102532.66;;;5.03;86.69
21781;BME280;52576;53.614;9.894;2024-01-27T00:28:58;102536.16;;;5.02;86.52
21781;BME280;52576;53.614;9.894;2024-01-27T00:31:01;102529.22;;;5.03;86.64
21781;BME280;52576;53.614;9.894;2024-01-27T00:33:03;102526.59;;;5.04;86.64
21781;BME280;52576;53.614;9.894;2024-01-27T00:35:07;102536.13;;;5.04;86.57
21781;BME280;52576;53.614;9.894;2024-01-27T00:37:15;102526.59;;;5.03;86.51
21781;BME280;52576;53.614;9.894;2024-01-27T00:39:19;102532.66;;;5.03;86.54
21781;BME280;52576;53.614;9.894;2024-01-27T00:41:22;102530.06;;;5.03;86.35
21781;BME280;52576;53.614;9.894;2024-01-27T00:43:27;102532.66;;;5.03;86.54
21781;BME280;52576;53.614;9.894;2024-01-27T00:45:30;102523.16;;;5.02;86.47
21781;BME280;52576;53.614;9.894;2024-01-27T00:47:33;102531.81;;;5.03;86.67
21781;BME280;52576;53.614;9.894;2024-01-27T00:49:37;102541.31;;;5.04;86.51
21781;BME280;52576;53.614;9.894;2024-01-27T00:51:40;102541.31;;;5.04;86.75
21781;BME280;52576;53.614;9.894;2024-01-27T00:53:42;102552.56;;;5.04;86.59
21781;BME280;52576;53.614;9.894;2024-01-27T00:55:45;102556.00;;;5.06;86.76
21781;BME280;52576;53.614;9.894;2024-01-27T00:57:48;102552.53;;;5.07;86.82
21781;BME280;52576;53.614;9.894;2024-01-27T00:59:53;102550.81;;;5.06;86.76
21781;BME280;52576;53.614;9.894;2024-01-27T01:01:56;102555.13;;;5.07;86.97
21781;BME280;52576;53.614;9.894;2024-01-27T01:03:59;102564.66;;;5.08;87.00
21781;BME280;52576;53.614;9.894;2024-01-27T01:06:02;102566.38;;;5.09;87.17
21781;BME280;52576;53.614;9.894;2024-01-27T01:08:06;102560.28;;;5.10;87.24
21781;BME280;52576;53.614;9.894;2024-01-27T01:10:09;102561.16;;;5.09;87.26
21781;BME280;52576;53.614;9.894;2024-01-27T01:12:12;102563.75;;;5.11;87.60
21781;BME280;52576;53.614;9.894;2024-01-27T01:14:17;102573.28;;;5.10;87.48
21781;BME280;52576;53.614;9.894;2024-01-27T01:16:21;102571.53;;;5.13;87.58
21781;BME280;52576;53.614;9.894;2024-01-27T01:18:24;102557.66;;;5.14;87.62
21781;BME280;52576;53.614;9.894;2024-01-27T01:20:27;102570.63;;;5.14;87.63
21781;BME280;52576;53.614;9.894;2024-01-27T01:22:31;102565.41;;;5.15;87.73
21781;BME280;52576;53.614;9.894;2024-01-27T01:24:34;102579.28;;;5.16;87.74
21781;BME280;52576;53.614;9.894;2024-01-27T01:26:38;102577.50;;;5.18;87.61
21781;BME280;52576;53.614;9.894;2024-01-27T01:28:41;102590.50;;;5.18;87.56
21781;BME280;52576;53.614;9.894;2024-01-27T01:30:45;102589.56;;;5.20;87.53
21781;BME280;52576;53.614;9.894;2024-01-27T01:32:49;102592.16;;;5.22;87.48
21781;BME280;52576;53.614;9.894;2024-01-27T01:34:53;102588.66;;;5.23;87.35
21781;BME280;52576;53.614;9.894;2024-01-27T01:36:56;102586.91;;;5.25;87.25
21781;BME280;52576;53.614;9.894;2024-01-27T01:38:59;102583.44;;;5.26;87.20
21781;BME280;52576;53.614;9.894;2024-01-27T01:41:03;102584.31;;;5.25;87.25
21781;BME280;52576;53.614;9.894;2024-01-27T01:43:09;102606.81;;;5.27;87.02
21781;BME280;52576;53.614;9.894;2024-01-27T01:45:13;102605.94;;;5.27;87.17
21781;BME280;52576;53.614;9.894;2024-01-27T01:47:16;102606.81;;;5.27;86.93
21781;BME280;52576;53.614;9.894;2024-01-27T01:49:21;102629.31;;;5.28;86.92
21781;BME280;52576;53.614;9.894;2024-01-27T01:51:25;102627.56;;;5.29;86.97
21781;BME280;52576;53.614;9.894;2024-01-27T01:53:29;102628.44;;;5.29;86.96
21781;BME280;52576;53.614;9.894;2024-01-27T01:55:32;102631.00;;;5.31;86.94
21781;BME280;52576;53.614;9.894;2024-01-27T01:57:35;102647.50;;;5.30;86.93
21781;BME280;52576;53.614;9.894;2024-01-27T01:59:38;102637.09;;;5.30;86.93
21781;BME280;52576;53.614;9.894;2024-01-27T02:01:43;102632.75;;;5.30;86.82
21781;BME280;52576;53.614;9.894;2024-01-27T02:03:52;102641.44;;;5.29;86.71
21781;BME280;52576;53.614;9.894;2024-01-27T02:05:56;102633.63;;;5.29;86.74
21781;BME280;52576;53.614;9.894;2024-01-27T02:08:00;102635.38;;;5.29;86.93
21781;BME280;52576;53.614;9.894;2024-01-27T02:10:12;102642.28;;;5.30;86.77
21781;BME280;52576;53.614;9.894;2024-01-27T02:12:15;102644.91;;;5.30;86.76
21781;BME280;52576;53.614;9.894;2024-01-27T02:14:19;102647.50;;;5.30;86.62
21781;BME280;52576;53.614;9.894;2024-01-27T02:16:22;102642.28;;;5.30;86.82
21781;BME280;52576;53.614;9.894;2024-01-27T02:18:25;102652.69;;;5.30;86.82
21781;BME280;52576;53.614;9.894;2024-01-27T02:20:28;102659.66;;;5.28;86.84
21781;BME280;52576;53.614;9.894;2024-01-27T02:22:33;102644.09;;;5.25;86.87
21781;BME280;52576;53.614;9.894;2024-01-27T02:24:37;102653.66;;;5.23;86.97
21781;BME280;52576;53.614;9.894;2024-01-27T02:26:40;102655.47;;;5.19;87.10
21781;BME280;52576;53.614;9.894;2024-01-27T02:28:43;102660.72;;;5.16;87.18
21781;BME280;52576;53.614;9.894;2024-01-27T02:30:46;102655.56;;;5.13;87.43
21781;BME280;52576;53.614;9.894;2024-01-27T02:32:49;102659.94;;;5.09;87.44
21781;BME280;52576;53.614;9.894;2024-01-27T02:34:52;102647.84;;;5.05;87.58
21781;BME280;52576;53.614;9.894;2024-01-27T02:36:55;102657.41;;;5.03;87.62
21781;BME280;52576;53.614;9.894;2024-01-27T02:38:58;102663.47;;;5.02;87.77
21781;BME280;52576;53.614;9.894;2024-01-27T02:41:03;102663.50;;;5.01;87.89
21781;BME280;52576;53.614;9.894;2024-01-27T02:43:06;102665.25;;;5.00;88.07
21781;BME280;52576;53.614;9.894;2024-01-27T02:45:09;102673.91;;;4.99;88.22
21781;BME280;52576;53.614;9.894;2024-01-27T02:47:11;102666.97;;;5.00;88.42
21781;BME280;52576;53.614;9.894;2024-01-27T02:49:15;102666.13;;;4.99;88.64
21781;BME280;52576;53.614;9.894;2024-01-27T02:51:19;102667.00;;;4.98;88.67
21781;BME280;52576;53.614;9.894;2024-01-27T02:53:21;102660.09;;;4.97;88.73
21781;BME280;52576;53.614;9.894;2024-01-27T02:55:24;102674.81;;;4.97;88.83
21781;BME280;52576;53.614;9.894;2024-01-27T02:57:29;102679.16;;;4.96;88.84
21781;BME280;52576;53.614;9.894;2024-01-27T02:59:31;102687.81;;;4.95;88.85
21781;BME280;52576;53.614;9.894;2024-01-27T03:01:34;102694.81;;;4.93;89.08
21781;BME280;52576;53.614;9.894;2024-01-27T03:03:36;102692.22;;;4.93;89.06
21781;BME280;52576;53.614;9.894;2024-01-27T03:05:40;102706.91;;;4.94;89.23
21781;BME280;52576;53.614;9.894;2024-01-27T03:07:43;102693.97;;;4.91;89.27
21781;BME280;52576;53.614;9.894;2024-01-27T03:09:46;102683.59;;;4.90;89.13
21781;BME280;52576;53.614;9.894;2024-01-27T03:11:49;102689.69;;;4.87;89.16
21781;BME280;52576;53.614;9.894;2024-01-27T03:13:54;102679.31;;;4.86;89.31
21781;BME280;52576;53.614;9.894;2024-01-27T03:15:57;102683.66;;;4.84;89.55
21781;BME280;52576;53.614;9.894;2024-01-27T03:17:59;102688.00;;;4.82;89.64
21781;BME280;52576;53.614;9.894;2024-01-27T03:20:03;102693.22;;;4.80;89.57
21781;BME280;52576;53.614;9.894;2024-01-27T03:22:06;102692.38;;;4.78;89.95
21781;BME280;52576;53.614;9.894;2024-01-27T03:24:09;102688.94;;;4.76;89.92
21781;BME280;52576;53.614;9.894;2024-01-27T03:26:12;102695.91;;;4.74;89.87
21781;BME280;52576;53.614;9.894;2024-01-27T03:28:15;102694.16;;;4.73;89.96
21781;BME280;52576;53.614;9.894;2024-01-27T03:30:20;102700.25;;;4.72;90.05
21781;BME280;52576;53.614;9.894;2024-01-27T03:32:23;102705.47;;;4.69;90.30
21781;BME280;52576;53.614;9.894;2024-01-27T03:34:25;102706.34;;;4.68;90.12
21781;BME280;52576;53.614;9.894;2024-01-27T03:36:29;102703.75;;;4.68;90.32
21781;BME280;52576;53.614;9.894;2024-01-27T03:38:32;102713.25;;;4.69;90.47
21781;BME280;52576;53.614;9.894;2024-01-27T03:40:37;102703.75;;;4.68;90.33
21781;BME280;52576;53.614;9.894;2024-01-27T03:42:40;102708.13;;;4.67;90.38
21781;BME280;52576;53.614;9.894;2024-01-27T03:45:08;102712.41;;;4.68;90.43
21781;BME280;52576;53.614;9.894;2024-01-27T03:47:13;102716.75;;;4.68;90.51
21781;BME280;52576;53.614;9.894;2024-01-27T03:49:16;102714.13;;;4.68;90.46
21781;BME280;52576;53.614;9.894;2024-01-27T03:51:20;102715.94;;;4.66;90.49
21781;BME280;52576;53.614;9.894;2024-01-27T03:53:23;102714.22;;;4.65;90.53
21781;BME280;52576;53.614;9.894;2024-01-27T03:55:26;102721.16;;;4.63;90.54
21781;BME280;52576;53.614;9.894;2024-01-27T03:57:28;102722.03;;;4.62;90.60
21781;BME280;52576;53.614;9.894;2024-01-27T03:59:31;102726.38;;;4.60;90.70
21781;BME280;52576;53.614;9.894;2024-01-27T04:01:33;102719.47;;;4.59;90.68
21781;BME280;52576;53.614;9.894;2024-01-27T04:03:37;102726.41;;;4.57;90.70
21781;BME280;52576;53.614;9.894;2024-01-27T04:05:41;102736.81;;;4.54;90.78
21781;BME280;52576;53.614;9.894;2024-01-27T04:07:43;102742.03;;;4.51;90.63
21781;BME280;52576;53.614;9.894;2024-01-27T04:09:47;102742.94;;;4.47;90.93
21781;BME280;52576;53.614;9.894;2024-01-27T04:11:50;102741.22;;;4.46;90.94
21781;BME280;52576;53.614;9.894;2024-01-27T04:13:53;102733.47;;;4.42;90.89
21781;BME280;52576;53.614;9.894;2024-01-27T04:15:56;102737.00;;;4.38;91.11
21781;BME280;52576;53.614;9.894;2024-01-27T04:18:01;102738.75;;;4.35;91.08
21781;BME280;52576;53.614;9.894;2024-01-27T04:20:09;102743.09;;;4.31;91.32
21781;BME280;52576;53.614;9.894;2024-01-27T04:22:12;102740.56;;;4.25;91.43
21781;BME280;52576;53.614;9.894;2024-01-27T04:24:14;102737.13;;;4.20;91.47
21781;BME280;52576;53.614;9.894;2024-01-27T04:26:18;102736.34;;;4.15;91.46
21781;BME280;52576;53.614;9.894;2024-01-27T04:28:21;102745.91;;;4.10;91.54
21781;BME280;52576;53.614;9.894;2024-01-27T04:30:25;102749.38;;;4.06;91.87
21781;BME280;52576;53.614;9.894;2024-01-27T04:32:28;102751.16;;;4.01;92.03
21781;BME280;52576;53.614;9.894;2024-01-27T04:34:31;102758.97;;;3.98;92.25
21781;BME280;52576;53.614;9.894;2024-01-27T04:36:36;102753.78;;;3.96;92.37
21781;BME280;52576;53.614;9.894;2024-01-27T04:38:40;102744.28;;;3.94;92.52
21781;BME280;52576;53.614;9.894;2024-01-27T04:40:43;102750.34;;;3.93;92.71
21781;BME280;52576;53.614;9.894;2024-01-27T04:42:46;102752.94;;;3.91;92.75
21781;BME280;52576;53.614;9.894;2024-01-27T04:44:49;102757.28;;;3.91;92.95
21781;BME280;52576;53.614;9.894;2024-01-27T04:46:52;102758.19;;;3.90;92.93
21781;BME280;52576;53.614;9.894;2024-01-27T04:48:55;102760.78;;;3.90;93.18
21781;BME280;52576;53.614;9.894;2024-01-27T04:50:58;102765.06;;;3.91;93.25
21781;BME280;52576;53.614;9.894;2024-01-27T04:53:03;102765.06;;;3.91;93.39
21781;BME280;52576;53.614;9.894;2024-01-27T04:55:06;102769.38;;;3.92;93.45
21781;BME280;52576;53.614;9.894;2024-01-27T04:57:10;102763.31;;;3.93;93.46
21781;BME280;52576;53.614;9.894;2024-01-27T04:59:13;102771.09;;;3.91;93.64
21781;BME280;52576;53.614;9.894;2024-01-27T05:01:16;102769.38;;;3.90;93.48
21781;BME280;52576;53.614;9.894;2024-01-27T05:03:19;102773.75;;;3.90;93.61
21781;BME280;52576;53.614;9.894;2024-01-27T05:05:23;102770.28;;;3.88;93.78
21781;BME280;52576;53.614;9.894;2024-01-27T05:07:26;102784.13;;;3.87;93.71
21781;BME280;52576;53.614;9.894;2024-01-27T05:09:30;102772.91;;;3.85;93.90
21781;BME280;52576;53.614;9.894;2024-01-27T05:11:33;102775.50;;;3.83;93.84
21781;BME280;52576;53.614;9.894;2024-01-27T05:13:36;102779.88;;;3.78;93.80
21781;BME280;52576;53.614;9.894;2024-01-27T05:15:40;102787.66;;;3.73;94.02
21781;BME280;52576;53.614;9.894;2024-01-27T05:17:43;102785.97;;;3.69;94.07
21781;BME280;52576;53.614;9.894;2024-01-27T05:19:46;102780.78;;;3.65;94.06
21781;BME280;52576;53.614;9.894;2024-01-27T05:21:49;102780.00;;;3.60;94.26
21781;BME280;52576;53.614;9.894;2024-01-27T05:23:52;102779.13;;;3.56;94.16
21781;BME280;52576;53.614;9.894;2024-01-27T05:25:58;102780.03;;;3.52;94.37
21781;BME280;52576;53.614;9.894;2024-01-27T05:28:01;102772.25;;;3.49;94.52
21781;BME280;52576;53.614;9.894;2024-01-27T05:30:04;102780.91;;;3.45;94.55
21781;BME280;52576;53.614;9.894;2024-01-27T05:32:08;102776.59;;;3.41;94.75
21781;BME280;52576;53.614;9.894;2024-01-27T05:34:11;102786.16;;;3.36;94.71
21781;BME280;52576;53.614;9.894;2024-01-27T05:36:14;102783.59;;;3.33;94.89
21781;BME280;52576;53.614;9.894;2024-01-27T05:38:18;102774.09;;;3.29;95.17
21781;BME280;52576;53.614;9.894;2024-01-27T05:40:21;102784.47;;;3.26;95.39
21781;BME280;52576;53.614;9.894;2024-01-27T05:42:25;102782.75;;;3.23;95.41
21781;BME280;52576;53.614;9.894;2024-01-27T05:44:29;102784.47;;;3.21;95.73
21781;BME280;52576;53.614;9.894;2024-01-27T05:46:32;102793.13;;;3.19;95.93
21781;BME280;52576;53.614;9.894;2024-01-27T05:48:35;102797.47;;;3.17;95.87
21781;BME280;52576;53.614;9.894;2024-01-27T05:50:40;102792.28;;;3.17;96.19
21781;BME280;52576;53.614;9.894;2024-01-27T05:52:43;102797.47;;;3.15;96.33
21781;BME280;52576;53.614;9.894;2024-01-27T05:54:46;102800.91;;;3.14;96.36
21781;BME280;52576;53.614;9.894;2024-01-27T05:56:48;102803.50;;;3.13;96.39
21781;BME280;52576;53.614;9.894;2024-01-27T05:58:52;102790.59;;;3.10;96.54
21781;BME280;52576;53.614;9.894;2024-01-27T06:00:55;102796.66;;;3.09;96.71
21781;BME280;52576;53.614;9.894;2024-01-27T06:02:59;102800.97;;;3.08;96.80
21781;BME280;52576;53.614;9.894;2024-01-27T06:05:02;102805.28;;;3.08;97.04
21781;BME280;52576;53.614;9.894;2024-01-27T06:07:05;102807.88;;;3.06;97.02
21781;BME280;52576;53.614;9.894;2024-01-27T06:09:09;102810.47;;;3.04;97.14
21781;BME280;52576;53.614;9.894;2024-01-27T06:11:13;102809.59;;;3.04;97.13
21781;BME280;52576;53.614;9.894;2024-01-27T06:13:16;102812.19;;;3.02;97.24
21781;BME280;52576;53.614;9.894;2024-01-27T06:15:20;102817.38;;;3.01;97.45
21781;BME280;52576;53.614;9.894;2024-01-27T06:17:23;102822.56;;;2.99;97.43
21781;BME280;52576;53.614;9.894;2024-01-27T06:19:26;102829.47;;;2.97;97.70
21781;BME280;52576;53.614;9.894;2024-01-27T06:21:29;102828.63;;;2.97;97.75
21781;BME280;52576;53.614;9.894;2024-01-27T06:23:32;102838.97;;;2.97;97.94
21781;BME280;52576;53.614;9.894;2024-01-27T06:25:35;102834.66;;;2.97;98.17
21781;BME280;52576;53.614;9.894;2024-01-27T06:27:38;102836.38;;;2.95;98.07
21781;BME280;52576;53.614;9.894;2024-01-27T06:29:43;102838.13;;;2.93;98.04
21781;BME280;52576;53.614;9.894;2024-01-27T06:31:47;102838.97;;;2.92;98.19
21781;BME280;52576;53.614;9.894;2024-01-27T06:33:50;102853.66;;;2.92;98.47
21781;BME280;52576;53.614;9.894;2024-01-27T06:35:53;102847.63;;;2.90;98.53
21781;BME280;52576;53.614;9.894;2024-01-27T06:37:56;102850.22;;;2.88;98.50
21781;BME280;52576;53.614;9.894;2024-01-27T06:39:59;102850.22;;;2.88;98.58
21781;BME280;52576;53.614;9.894;2024-01-27T06:42:03;102850.22;;;2.88;98.78
21781;BME280;52576;53.614;9.894;2024-01-27T06:44:06;102856.25;;;2.87;98.74
21781;BME280;52576;53.614;9.894;2024-01-27T06:46:09;102848.47;;;2.87;98.84
21781;BME280;52576;53.614;9.894;2024-01-27T06:48:13;102852.81;;;2.87;98.89
21781;BME280;52576;53.614;9.894;2024-01-27T06:50:16;102853.69;;;2.84;98.88
21781;BME280;52576;53.614;9.894;2024-01-27T06:52:19;102857.16;;;2.83;99.07
21781;BME280;52576;53.614;9.894;2024-01-27T06:54:22;102865.78;;;2.82;98.75
21781;BME280;52576;53.614;9.894;2024-01-27T06:56:24;102867.50;;;2.80;98.85
21781;BME280;52576;53.614;9.894;2024-01-27T06:58:28;102869.22;;;2.78;98.98
21781;BME280;52576;53.614;9.894;2024-01-27T07:00:31;102877.88;;;2.77;99.03
21781;BME280;52576;53.614;9.894;2024-01-27T07:02:33;102877.88;;;2.77;99.00
21781;BME280;52576;53.614;9.894;2024-01-27T07:04:38;102881.31;;;2.76;99.04
21781;BME280;52576;53.614;9.894;2024-01-27T07:06:41;102881.31;;;2.76;99.15
21781;BME280;52576;53.614;9.894;2024-01-27T07:08:44;102889.09;;;2.76;99.28
21781;BME280;52576;53.614;9.894;2024-01-27T07:10:47;102889.94;;;2.75;99.34
21781;BME280;52576;53.614;9.894;2024-01-27T07:16:50;102895.13;;;2.75;99.40
21781;BME280;52576;53.614;9.894;2024-01-27T07:18:53;102903.75;;;2.74;99.52
21781;BME280;52576;53.614;9.894;2024-01-27T07:20:58;102904.63;;;2.75;99.60
21781;BME280;52576;53.614;9.894;2024-01-27T07:23:03;102895.13;;;2.75;99.59
21781;BME280;52576;53.614;9.894;2024-01-27T07:25:06;102905.47;;;2.75;99.42
21781;BME280;52576;53.614;9.894;2024-01-27T07:27:12;102903.75;;;2.74;99.35
21781;BME280;52576;53.614;9.894;2024-01-27T07:29:16;102902.91;;;2.73;99.46
21781;BME280;52576;53.614;9.894;2024-01-27T07:31:20;102912.38;;;2.73;99.35
21781;BME280;52576;53.614;9.894;2024-01-27T07:33:29;102921.88;;;2.74;99.57
21781;BME280;52576;53.614;9.894;2024-01-27T07:35:33;102917.56;;;2.73;99.37
21781;BME280;52576;53.614;9.894;2024-01-27T07:37:37;102921.88;;;2.76;99.49
21781;BME280;52576;53.614;9.894;2024-01-27T07:39:40;102933.09;;;2.76;99.58
21781;BME280;52576;53.614;9.894;2024-01-27T07:41:43;102921.88;;;2.79;99.51
21781;BME280;52576;53.614;9.894;2024-01-27T07:43:46;102935.72;;;2.81;99.51
21781;BME280;52576;53.614;9.894;2024-01-27T07:45:50;102929.66;;;2.83;99.58
21781;BME280;52576;53.614;9.894;2024-01-27T07:47:56;102926.22;;;2.84;99.49
21781;BME280;52576;53.614;9.894;2024-01-27T07:50:03;102934.81;;;2.86;99.37
21781;BME280;52576;53.614;9.894;2024-01-27T07:52:06;102931.34;;;2.87;99.33
21781;BME280;52576;53.614;9.894;2024-01-27T07:54:11;102938.28;;;2.88;99.23
21781;BME280;52576;53.614;9.894;2024-01-27T07:56:15;102943.44;;;2.90;99.22
21781;BME280;52576;53.614;9.894;2024-01-27T07:58:19;102946.03;;;2.90;99.19
21781;BME280;52576;53.614;9.894;2024-01-27T08:00:23;102939.13;;;2.90;99.01
21781;BME280;52576;53.614;9.894;2024-01-27T08:02:26;102948.63;;;2.91;99.08
21781;BME280;52576;53.614;9.894;2024-01-27T08:04:29;102945.19;;;2.89;98.79
21781;BME280;52576;53.614;9.894;2024-01-27T08:06:33;102940.00;;;2.91;98.83
21781;BME280;52576;53.614;9.894;2024-01-27T08:08:38;102946.91;;;2.90;98.86
21781;BME280;52576;53.614;9.894;2024-01-27T08:10:44;102947.78;;;2.91;98.84
21781;BME280;52576;53.614;9.894;2024-01-27T08:12:48;102941.72;;;2.90;98.61
21781;BME280;52576;53.614;9.894;2024-01-27T08:14:54;102940.00;;;2.89;98.56
21781;BME280;52576;53.614;9.894;2024-01-27T08:16:57;102936.53;;;2.90;98.51
21781;BME280;52576;53.614;9.894;2024-01-27T08:19:01;102933.94;;;2.90;98.28
21781;BME280;52576;53.614;9.894;2024-01-27T08:21:06;102942.59;;;2.89;98.35
21781;BME280;52576;53.614;9.894;2024-01-27T08:23:11;102945.19;;;2.89;98.42
21781;BME280;52576;53.614;9.894;2024-01-27T08:25:15;102949.50;;;2.90;98.31
21781;BME280;52576;53.614;9.894;2024-01-27T08:27:20;102942.59;;;2.91;98.25
21781;BME280;52576;53.614;9.894;2024-01-27T08:29:23;102940.88;;;2.91;98.24
21781;BME280;52576;53.614;9.894;2024-01-27T08:31:26;102945.19;;;2.92;98.11
21781;BME280;52576;53.614;9.894;2024-01-27T08:33:30;102944.31;;;2.93;98.04
21781;BME280;52576;53.614;9.894;2024-01-27T08:35:34;102948.63;;;2.94;98.16
21781;BME280;52576;53.614;9.894;2024-01-27T08:37:37;102955.53;;;2.95;97.90
21781;BME280;52576;53.614;9.894;2024-01-27T08:39:41;102957.28;;;2.96;98.05
21781;BME280;52576;53.614;9.894;2024-01-27T08:41:45;102955.53;;;2.98;97.91
21781;BME280;52576;53.614;9.894;2024-01-27T08:43:50;102958.13;;;3.00;97.83
21781;BME280;52576;53.614;9.894;2024-01-27T08:45:52;102958.13;;;3.03;97.70
21781;BME280;52576;53.614;9.894;2024-01-27T08:47:57;102964.19;;;3.06;97.78
21781;BME280;52576;53.614;9.894;2024-01-27T08:50:00;102965.06;;;3.10;97.64
21781;BME280;52576;53.614;9.894;2024-01-27T08:52:03;102969.34;;;3.14;97.55
21781;BME280;52576;53.614;9.894;2024-01-27T08:54:07;102975.38;;;3.16;97.49
21781;BME280;52576;53.614;9.894;2024-01-27T08:56:11;102974.53;;;3.20;97.31
21781;BME280;52576;53.614;9.894;2024-01-27T08:58:16;102976.25;;;3.23;97.15
21781;BME280;52576;53.614;9.894;2024-01-27T09:00:21;102970.19;;;3.25;96.96
21781;BME280;52576;53.614;9.894;2024-01-27T09:02:26;102972.78;;;3.30;96.95
21781;BME280;52576;53.614;9.894;2024-01-27T09:04:29;102977.97;;;3.33;96.79
21781;BME280;52576;53.614;9.894;2024-01-27T09:06:33;102981.44;;;3.35;96.78
21781;BME280;52576;53.614;9.894;2024-01-27T09:08:37;102986.59;;;3.38;96.39
21781;BME280;52576;53.614;9.894;2024-01-27T09:10:41;102984.84;;;3.41;96.32
21781;BME280;52576;53.614;9.894;2024-01-27T09:12:44;102974.47;;;3.43;96.08
21781;BME280;52576;53.614;9.894;2024-01-27T09:14:50;102996.94;;;3.46;96.09
21781;BME280;52576;53.614;9.894;2024-01-27T09:16:55;103006.44;;;3.50;95.91
21781;BME280;52576;53.614;9.894;2024-01-27T09:18:59;102983.97;;;3.52;95.88
21781;BME280;52576;53.614;9.894;2024-01-27T09:21:08;103002.13;;;3.56;95.44
21781;BME280;52576;53.614;9.894;2024-01-27T09:23:12;103000.38;;;3.61;95.43
21781;BME280;52576;53.614;9.894;2024-01-27T09:25:17;102983.06;;;3.69;95.33
21781;BME280;52576;53.614;9.894;2024-01-27T09:27:21;102990.81;;;3.85;95.09
21781;BME280;52576;53.614;9.894;2024-01-27T09:29:25;103001.13;;;3.98;94.75
21781;BME280;52576;53.614;9.894;2024-01-27T09:31:28;102988.09;;;4.09;94.35
21781;BME280;52576;53.614;9.894;2024-01-27T09:33:34;102993.28;;;4.12;94.05
21781;BME280;52576;53.614;9.894;2024-01-27T09:35:38;102996.75;;;4.14;93.85
21781;BME280;52576;53.614;9.894;2024-01-27T09:37:42;102990.69;;;4.14;93.73
21781;BME280;52576;53.614;9.894;2024-01-27T09:39:48;103003.66;;;4.14;92.83
21781;BME280;52576;53.614;9.894;2024-01-27T09:41:53;102994.16;;;4.11;92.37
21781;BME280;52576;53.614;9.894;2024-01-27T09:43:59;102991.56;;;4.11;92.53
21781;BME280;52576;53.614;9.894;2024-01-27T09:46:04;103008.84;;;4.12;92.32
21781;BME280;52576;53.614;9.894;2024-01-27T09:48:10;102993.28;;;4.12;91.96
21781;BME280;52576;53.614;9.894;2024-01-27T09:50:17;102993.28;;;4.14;92.16
21781;BME280;52576;53.614;9.894;2024-01-27T09:52:21;102992.38;;;4.18;92.14
21781;BME280;52576;53.614;9.894;2024-01-27T09:54:27;102994.94;;;4.22;91.85
21781;BME280;52576;53.614;9.894;2024-01-27T09:56:31;102996.66;;;4.25;91.78
21781;BME280;52576;53.614;9.894;2024-01-27T09:58:35;103001.84;;;4.29;91.60
21781;BME280;52576;53.614;9.894;2024-01-27T10:00:41;103000.09;;;4.34;91.58
21781;BME280;52576;53.614;9.894;2024-01-27T10:02:47;102997.47;;;4.37;91.48
21781;BME280;52576;53.614;9.894;2024-01-27T10:04:51;102997.44;;;4.43;91.24
21781;BME280;52576;53.614;9.894;2024-01-27T10:06:57;103007.78;;;4.48;91.09
21781;BME280;52576;53.614;9.894;2024-01-27T10:09:01;103000.84;;;4.53;90.89
21781;BME280;52576;53.614;9.894;2024-01-27T10:11:07;103010.34;;;4.59;90.65
21781;BME280;52576;53.614;9.894;2024-01-27T10:13:11;103012.91;;;4.63;89.87
21781;BME280;52576;53.614;9.894;2024-01-27T10:15:20;103015.44;;;4.68;89.96
21781;BME280;52576;53.614;9.894;2024-01-27T10:17:25;103007.63;;;4.71;89.50
21781;BME280;52576;53.614;9.894;2024-01-27T10:19:35;103002.41;;;4.77;89.39
21781;BME280;52576;53.614;9.894;2024-01-27T10:21:47;103019.72;;;4.81;89.07
21781;BME280;52576;53.614;9.894;2024-01-27T10:23:54;103017.94;;;4.86;88.89
21781;BME280;52576;53.614;9.894;2024-01-27T10:26:01;103006.66;;;4.89;88.57
21781;BME280;52576;53.614;9.894;2024-01-27T10:28:06;103012.66;;;4.94;88.67
21781;BME280;52576;53.614;9.894;2024-01-27T10:30:15;103014.38;;;4.98;88.28
21781;BME280;52576;53.614;9.894;2024-01-27T10:32:20;103016.06;;;5.02;88.13
21781;BME280;52576;53.614;9.894;2024-01-27T10:34:28;103011.72;;;5.07;88.01
21781;BME280;52576;53.614;9.894;2024-01-27T10:36:41;103012.53;;;5.14;87.79
21781;BME280;52576;53.614;9.894;2024-01-27T10:38:48;103006.44;;;5.18;87.16
21781;BME280;52576;53.614;9.894;2024-01-27T10:41:01;103018.50;;;5.22;87.08
21781;BME280;52576;53.614;9.894;2024-01-27T10:43:07;103006.34;;;5.27;86.66
21781;BME280;52576;53.614;9.894;2024-01-27T10:45:12;103014.97;;;5.32;86.46
21781;BME280;52576;53.614;9.894;2024-01-27T10:47:18;103016.66;;;5.36;86.41
21781;BME280;52576;53.614;9.894;2024-01-27T10:49:24;103027.91;;;5.39;86.21
21781;BME280;52576;53.614;9.894;2024-01-27T10:51:30;103020.06;;;5.44;86.00
21781;BME280;52576;53.614;9.894;2024-01-27T10:53:35;103024.31;;;5.50;85.99
21781;BME280;52576;53.614;9.894;2024-01-27T10:55:45;103021.66;;;5.54;84.92
21781;BME280;52576;53.614;9.894;2024-01-27T10:57:52;103014.69;;;5.58;85.07
21781;BME280;52576;53.614;9.894;2024-01-27T11:00:02;103014.66;;;5.62;84.55